Terminal Aerodrome Forecast
Issued by NWS Wilmington, OH

Current Version | Previous Version | Text Only | Print | Product List | Glossary Off
Versions: 1 2 3 4 5 6 7 8 9 10 11 12 13 14 15 16 17 18 19

000
FTUS41 KILN 161400 AAA
TAFILN
TAF AMD
KILN 161419Z 1614/1712 14010KT P6SM VCSH OVC025
      TEMPO 1614/1618 5SM -SHRA OVC015
     FM162100 19006KT 5SM -SHRA VCTS OVC020CB
     FM170400 23005KT 4SM BR OVC010=

USA.gov is the U.S. government's official web portal to all federal, state and local government web resources and services.